Hibbing, MN

7:05 AM CDT on August 31, 2015 (GMT -0500)
Chisholm-hibbing | | Change Station
CLOSE
Current Station
Airport
Location: Hibbing,
Elevation: 1352 ft
Nearby Weather Stations
Active Advisory: Special Statement

Elev 1352 ft 47.39 °N, 92.84 °W | Updated 12 minutes ago

Fog
Fog
58 °F
Feels Like 58 °F
N
5
Wind Variable Wind from SE

Today
High -- | Low -- °F
--% Chance of Precip.
Yesterday
High -- | Low -- °F
Precip. -- in
6:28 AM 7:54 PM
Waning Gibbous, 96% visible
Pressure 29.85 in
Visibility 0.5 miles
Clouds
Dew Point 57 °F
Humidity 97%
Rainfall 0.00 in
Snow Depth Not available.
UV Not available.
Pollen 10.10 out of 12
Air Quality Not available.
Flu Activity Not available.
METAR KHIB 311153Z AUTO 13004KT 1/2SM FG VV006 14/14 A2986 RMK AO2 SLP108 T01440139 10183 20144 55002
Pressure 29.85 in
Visibility 0.5 miles
Clouds
Dew Point 57 °F
Humidity 97%
Rainfall 0.00 in
Snow Depth Not available.
UV Not available.
Pollen 10.10 out of 12
Air Quality Not available.
Flu Activity Not available.
METAR KHIB 311153Z AUTO 13004KT 1/2SM FG VV006 14/14 A2986 RMK AO2 SLP108 T01440139 10183 20144 55002

10-Day Weather Forecast

×

Almanac

Astronomy

Aug. 31, 2015 Rise Set
Actual Time
Civil Twilight
Nautical Twilight
Astronomical Twilight
Moon
Length of Visible Light
Length of Day
Tomorrow will be .
, % of the Moon is Illuminated

Today's Extremes

State Highs State Lows

Community

WunderPhotos

Upload Photos

1,851,218 photos uploaded!

WunderBlogs® & News

Nearby

Air Quality

  Air Quality AQ Index Pollutant
Not available.

Snow Depth

Station Depth Elevation

Earthquake Activity

City Distance Mag. Time & Date
Minimum magnitude displayed is 2.5.

Coastal Water Temperatures

Place Temperature

Stations

Nearby Weather Stations

Station Location Temp. Windchill Dew Point Humidity Wind Precip. Elev Updated Type
                   
Special Statement
Statement as of 6:14 AM CDT on August 31, 2015

... Patchy dense fog this morning...

Patchy dense fog will be possible this morning... but should lift
between 800 am and 930 am. Visibilities of a quarter to half mile
have been reported in Superior... Eveleth... Grand Marais... and
Phillips. The fog may impact travel... slow down and use caution.



614 am CDT Mon Aug 31 2015

... Patchy dense fog this morning...

Patchy dense fog will be possible this morning... but should lift
between 800 am and 930 am. Visibilities of a quarter to half mile
have been reported in Superior... Eveleth... Grand Marais... and
Phillips. The fog may impact travel... slow down and use caution.